METAR Data
IDs: Format: Raw Decoded Include TAF

Data at: 1434 UTC 19 Jul 2019

Region: TOP
KATL 191352Z 27005KT 10SM FEW040 SCT060 BKN100 BKN150 BKN200 27/23 A3014 RMK AO2 RAB10E47 SLP195 ACC N P0000 T02670228

KBOS 191354Z 14006KT 10SM FEW027 SCT030 SCT250 23/15 A2988 RMK AO2 SLP118 T02280150

KBWI 191354Z 32007KT 10SM FEW250 32/23 A2995 RMK AO2 SLP139 T03170228

KCLE 191401Z 23011KT 10SM BKN015 BKN250 29/24 A2995 RMK AO2 T02940244 $

KCLT 191352Z VRB03KT 10SM FEW180 SCT250 31/22 A3007 RMK AO2 SLP173 T03060217

KCVG 191352Z 24009KT 7SM FEW010 OVC020 27/24 A3003 RMK AO2 SLP156 BINOVC T02720239

KDCA 191352Z 33008KT 10SM CLR 32/22 A2997 RMK AO2 SLP148 T03170222

KDEN 191353Z 22010KT 10SM SCT250 25/02 A2997 RMK AO2 SLP049 T02500022

KDFW 191353Z 20012KT 10SM FEW250 28/21 A2995 RMK AO2 SLP132 T02830211

KDTW 191416Z 24012KT 8SM BKN016 BKN075 29/24 A2987 RMK AO2 T02940244

KEWR 191417Z 26007KT 10SM SCT009 BKN014 28/23 A2992 RMK AO2 T02780228

KFLL 191353Z 12009KT 10SM SCT025 SCT250 31/24 A3009 RMK AO2 SLP188 TCU DSNT SE T03110244

KIAD 191352Z 27005KT 10SM CLR 31/22 A2997 RMK AO2 SLP146 T03110217

KIAH 191353Z 18006KT 10SM SCT020 SCT250 29/24 A3003 RMK AO2 SLP166 T02940244

KJFK 191351Z 21007KT 10SM FEW015 SCT250 25/23 A2993 RMK AO2 SLP135 T02500228

KLAS 191356Z 19005KT 10SM FEW140 29/04 A2983 RMK AO2 SLP069 ACC DSNT E T02890039

KLAX 191353Z 09004KT 7SM OVC019 18/14 A2994 RMK AO2 SLP136 T01780139 $

KLGA 191418Z 23006KT 10SM SCT021 28/21 A2991 RMK AO2 T02780211

KMCO 191353Z 18006KT 10SM FEW022 FEW250 29/23 A3012 RMK AO2 SLP199 CB DSNT NW T02890233

KMDW 191353Z 22013KT 10SM FEW060 FEW200 BKN250 BKN300 28/24 A2981 RMK AO2 SLP079 T02830244

KMEM 191354Z 23006KT 10SM FEW100 BKN150 BKN250 28/26 A3006 RMK AO2 SLP174 T02830256 $

KMIA 191353Z 13008KT 10SM SCT030 BKN037 BKN250 31/23 A3010 RMK AO2 SLP191 T03110228

KMSP 191353Z 14003KT 10SM BKN150 26/23 A2975 RMK AO2 SLP066 T02610228

KORD 191351Z 21011G18KT 10SM FEW050 FEW075 BKN250 28/23 A2980 RMK AO2 SLP083 T02780233

KPDX 191353Z 32003KT 10SM CLR 14/10 A3012 RMK AO2 SLP199 T01440100

KPHL 191354Z 24004KT 10SM FEW009 SCT013 28/23 A2993 RMK AO2 SLP134 T02780228

KPHX 191351Z 11005KT 10SM FEW160 BKN190 BKN250 32/11 A2981 RMK AO2 SLP071 T03220106

KPIT 191351Z 25008KT 7SM OVC011 26/23 A2999 RMK AO2 SLP152 T02560228

KSAN 191351Z VRB05KT 10SM OVC015 19/15 A2996 RMK AO2 SLP145 T01890150

KSEA 191353Z 05005KT 7SM BKN023 BKN030 OVC060 13/10 A3013 RMK AO2 RAE52 SLP207 P0001 T01330100

KSFO 191356Z 18005KT 10SM FEW008 FEW014 16/12 A2988 RMK AO2 SLP117 T01610122

KSLC 191354Z 23007KT 10SM FEW170 SCT230 27/04 A2992 RMK AO2 SLP063 FU ALFT T02720044 PNO $

KSTL 191351Z 24012G18KT 10SM FEW250 30/22 A2996 RMK AO2 SLP129 T03000222

KTPA 191353Z 23004KT 10SM FEW020 SCT250 29/24 A3012 RMK AO2 SLP199 T02890239 $